ADDS METAR Data INFO
IDs: Format: Raw Decoded Include TAF

Data at: 0804 UTC 23 Jul 2018

KRBL 230754Z AUTO 20004KT 10SM CLR 29/17 A3000 RMK AO2 SLP153 T02890172 403830233
KRBL 230654Z AUTO 21007KT 10SM CLR 30/19 A2999 RMK AO2 SLP150 T03000189
KRBL 230554Z AUTO 19006KT 10SM CLR 31/20 A2998 RMK AO2 SLP148 T03110200 10383 20306 51018
KRBL 230454Z AUTO 17005KT 10SM CLR 31/21 A2997 RMK AO2 SLP144 T03060206
KRBL 230354Z AUTO 13004KT 10SM CLR 33/19 A2995 RMK AO2 SLP138 T03280189
KRBL 230254Z AUTO 15008KT 10SM CLR 36/17 A2993 RMK AO2 SLP129 T03560172 53001
KRBL 230154Z AUTO 17010KT 10SM CLR 37/17 A2991 RMK AO2 SLP123 T03720172
KRBL 230054Z AUTO 16010KT 10SM CLR 38/17 A2991 RMK AO2 SLP124 T03780167
KRBL 222354Z AUTO 17009KT 10SM CLR 38/16 A2993 RMK AO2 SLP129 T03780161 10383 20306 56021
KRBL 222254Z AUTO 18008KT 10SM CLR 38/16 A2994 RMK AO2 SLP135 T03780161
KRBL 222154Z AUTO 16010KT 10SM CLR 37/16 A2997 RMK AO2 SLP142 T03720156
KRBL 222054Z AUTO 12008KT 080V150 10SM CLR 36/15 A2999 RMK AO2 SLP150 T03610150 58016
KRBL 221954Z AUTO 17006KT 10SM CLR 34/15 A3001 RMK AO2 SLP157 T03440150
KRBL 221854Z AUTO 08004KT 10SM CLR 33/14 A3003 RMK AO2 SLP163 T03280139
KRBL 221754Z AUTO 00000KT 10SM CLR 31/14 A3003 RMK AO2 SLP166 T03060139 10311 20233 50002
KRBL 221654Z AUTO 05004KT 10SM CLR 29/13 A3004 RMK AO2 SLP167 T02890128
KRBL 221554Z AUTO 14005KT 10SM CLR 27/12 A3004 RMK AO2 SLP168 T02670117
KRBL 221454Z AUTO 16003KT 10SM CLR 25/12 A3003 RMK AO2 SLP164 T02500122 51017
KRBL 221354Z AUTO 18003KT 10SM CLR 24/13 A3002 RMK AO2 SLP160 T02390133
KRBL 221254Z AUTO 15003KT 10SM CLR 24/14 A3000 RMK AO2 SLP154 T02390139
KRBL 221154Z AUTO 16003KT 10SM CLR 25/14 A2998 RMK AO2 SLP147 T02500139 10300 20250 51009
KRBL 221054Z AUTO 14005KT 10SM CLR 26/14 A2997 RMK AO2 SLP145 T02560144
KRBL 220954Z AUTO 10005KT 10SM CLR 27/14 A2996 RMK AO2 SLP141 T02670144
KRBL 220854Z AUTO 20007KT 10SM CLR 28/14 A2995 RMK AO2 SLP137 T02780144 51014
KRBL 220754Z AUTO 19008KT 10SM CLR 29/15 A2994 RMK AO2 SLP134 T02890150 403720194
KRBL 220654Z AUTO 19007KT 10SM CLR 30/18 A2993 RMK AO2 SLP130 T03000178
KRBL 220554Z AUTO 13004KT 10SM CLR 29/18 A2991 RMK AO2 SLP123 T02940178 10372 20294 51019
KRBL 220454Z AUTO 10005KT 10SM CLR 31/17 A2990 RMK AO2 SLP119 T03060172
KRBL 220354Z AUTO 19006KT 10SM CLR 32/17 A2987 RMK AO2 SLP111 T03220172
KRBL 220254Z AUTO 16009KT 10SM CLR 34/17 A2985 RMK AO2 SLP104 T03440167 55001
KRBL 220154Z AUTO 15008KT 10SM CLR 36/16 A2984 RMK AO2 SLP100 T03610161
KRBL 220054Z AUTO 17008G15KT 10SM CLR 36/14 A2985 RMK AO2 SLP101 T03610139
KRBL 212354Z AUTO 17011KT 10SM CLR 37/14 A2986 RMK AO2 SLP105 T03670144 10372 20300 56016
KRBL 212254Z AUTO VRB03KT 10SM CLR 36/12 A2987 RMK AO2 SLP109 T03610122
KRBL 212154Z AUTO 14009KT 10SM CLR 36/11 A2989 RMK AO2 SLP115 T03610106
KRBL 212054Z AUTO 15009KT 10SM CLR 35/10 A2990 RMK AO2 SLP122 T03500100 58011